sensor_id;sensor_type;location;lat;lon;timestamp;P1;durP1;ratioP1;P2;durP2;ratioP2
70153;SDS011;57519;51.494;-2.626;2022-07-29T00:02:20;7.88;;;4.80;;
70153;SDS011;57519;51.494;-2.626;2022-07-29T00:04:46;5.93;;;4.27;;
70153;SDS011;57519;51.494;-2.626;2022-07-29T00:07:11;6.40;;;3.93;;
70153;SDS011;57519;51.494;-2.626;2022-07-29T00:09:37;8.57;;;4.70;;
70153;SDS011;57519;51.494;-2.626;2022-07-29T00:12:02;9.13;;;4.30;;
70153;SDS011;57519;51.494;-2.626;2022-07-29T00:14:28;8.97;;;4.40;;
70153;SDS011;57519;51.494;-2.626;2022-07-29T00:16:53;7.77;;;4.90;;
70153;SDS011;57519;51.494;-2.626;2022-07-29T00:19:19;10.52;;;4.97;;
70153;SDS011;57519;51.494;-2.626;2022-07-29T00:21:44;6.80;;;4.80;;
70153;SDS011;57519;51.494;-2.626;2022-07-29T00:24:10;6.40;;;4.97;;
70153;SDS011;57519;51.494;-2.626;2022-07-29T00:26:35;8.30;;;4.80;;
70153;SDS011;57519;51.494;-2.626;2022-07-29T00:29:03;9.10;;;4.83;;
70153;SDS011;57519;51.494;-2.626;2022-07-29T00:31:29;11.40;;;5.85;;
70153;SDS011;57519;51.494;-2.626;2022-07-29T00:33:55;10.63;;;5.33;;
70153;SDS011;57519;51.494;-2.626;2022-07-29T00:36:21;13.02;;;5.43;;
70153;SDS011;57519;51.494;-2.626;2022-07-29T00:38:50;8.80;;;5.40;;
70153;SDS011;57519;51.494;-2.626;2022-07-29T00:41:16;8.73;;;5.10;;
70153;SDS011;57519;51.494;-2.626;2022-07-29T00:43:42;8.40;;;4.78;;
70153;SDS011;57519;51.494;-2.626;2022-07-29T00:46:08;7.80;;;5.33;;
70153;SDS011;57519;51.494;-2.626;2022-07-29T00:48:34;7.05;;;5.03;;
70153;SDS011;57519;51.494;-2.626;2022-07-29T00:50:59;9.43;;;5.13;;
70153;SDS011;57519;51.494;-2.626;2022-07-29T00:53:27;10.77;;;4.93;;
70153;SDS011;57519;51.494;-2.626;2022-07-29T00:55:54;10.18;;;5.20;;
70153;SDS011;57519;51.494;-2.626;2022-07-29T00:58:20;10.13;;;4.93;;
70153;SDS011;57519;51.494;-2.626;2022-07-29T01:00:46;7.93;;;4.97;;
70153;SDS011;57519;51.494;-2.626;2022-07-29T01:03:12;8.13;;;5.00;;
70153;SDS011;57519;51.494;-2.626;2022-07-29T01:05:37;8.33;;;5.27;;
70153;SDS011;57519;51.494;-2.626;2022-07-29T01:08:05;10.23;;;5.00;;
70153;SDS011;57519;51.494;-2.626;2022-07-29T01:10:32;10.13;;;5.50;;
70153;SDS011;57519;51.494;-2.626;2022-07-29T01:12:59;11.45;;;5.90;;
70153;SDS011;57519;51.494;-2.626;2022-07-29T01:15:26;8.17;;;5.07;;
70153;SDS011;57519;51.494;-2.626;2022-07-29T01:31:05;12.27;;;5.97;;
70153;SDS011;57519;51.494;-2.626;2022-07-29T01:33:35;10.02;;;5.38;;
70153;SDS011;57519;51.494;-2.626;2022-07-29T01:36:37;8.03;;;5.17;;
70153;SDS011;57519;51.494;-2.626;2022-07-29T01:41:37;7.45;;;4.88;;
70153;SDS011;57519;51.494;-2.626;2022-07-29T01:44:15;9.45;;;4.90;;
70153;SDS011;57519;51.494;-2.626;2022-07-29T01:46:52;7.03;;;5.18;;
70153;SDS011;57519;51.494;-2.626;2022-07-29T01:49:24;14.37;;;6.13;;
70153;SDS011;57519;51.494;-2.626;2022-07-29T01:51:53;11.15;;;6.05;;
70153;SDS011;57519;51.494;-2.626;2022-07-29T01:57:03;11.38;;;5.72;;
70153;SDS011;57519;51.494;-2.626;2022-07-29T01:59:31;9.38;;;5.28;;
70153;SDS011;57519;51.494;-2.626;2022-07-29T02:01:59;9.90;;;5.20;;
70153;SDS011;57519;51.494;-2.626;2022-07-29T02:04:27;11.82;;;5.75;;
70153;SDS011;57519;51.494;-2.626;2022-07-29T02:06:54;12.65;;;5.75;;
70153;SDS011;57519;51.494;-2.626;2022-07-29T02:09:24;8.45;;;5.18;;
70153;SDS011;57519;51.494;-2.626;2022-07-29T02:11:52;12.90;;;6.03;;
70153;SDS011;57519;51.494;-2.626;2022-07-29T02:14:20;13.27;;;5.60;;
70153;SDS011;57519;51.494;-2.626;2022-07-29T02:16:48;10.18;;;5.97;;
70153;SDS011;57519;51.494;-2.626;2022-07-29T02:19:18;9.18;;;5.65;;
70153;SDS011;57519;51.494;-2.626;2022-07-29T02:21:46;8.73;;;5.55;;
70153;SDS011;57519;51.494;-2.626;2022-07-29T02:24:12;6.90;;;5.13;;
70153;SDS011;57519;51.494;-2.626;2022-07-29T02:26:41;11.10;;;5.60;;
70153;SDS011;57519;51.494;-2.626;2022-07-29T02:29:08;8.68;;;5.95;;
70153;SDS011;57519;51.494;-2.626;2022-07-29T02:31:35;10.07;;;6.05;;
70153;SDS011;57519;51.494;-2.626;2022-07-29T02:34:03;10.50;;;6.38;;
70153;SDS011;57519;51.494;-2.626;2022-07-29T02:36:32;13.63;;;6.00;;
70153;SDS011;57519;51.494;-2.626;2022-07-29T02:38:59;9.53;;;5.97;;
70153;SDS011;57519;51.494;-2.626;2022-07-29T02:44:26;10.45;;;5.53;;
70153;SDS011;57519;51.494;-2.626;2022-07-29T02:54:44;7.40;;;5.30;;
70153;SDS011;57519;51.494;-2.626;2022-07-29T02:57:22;9.25;;;6.43;;
70153;SDS011;57519;51.494;-2.626;2022-07-29T02:59:56;10.63;;;6.40;;
70153;SDS011;57519;51.494;-2.626;2022-07-29T03:02:23;10.77;;;6.53;;
70153;SDS011;57519;51.494;-2.626;2022-07-29T03:04:51;8.65;;;6.38;;
70153;SDS011;57519;51.494;-2.626;2022-07-29T03:07:19;9.23;;;5.82;;
70153;SDS011;57519;51.494;-2.626;2022-07-29T03:09:45;11.18;;;6.57;;
70153;SDS011;57519;51.494;-2.626;2022-07-29T03:12:11;9.75;;;5.97;;
70153;SDS011;57519;51.494;-2.626;2022-07-29T03:14:38;11.90;;;6.70;;
70153;SDS011;57519;51.494;-2.626;2022-07-29T03:17:04;12.55;;;6.75;;
70153;SDS011;57519;51.494;-2.626;2022-07-29T03:19:30;9.35;;;6.25;;
70153;SDS011;57519;51.494;-2.626;2022-07-29T03:21:57;9.13;;;5.55;;
70153;SDS011;57519;51.494;-2.626;2022-07-29T03:24:33;9.73;;;6.43;;
70153;SDS011;57519;51.494;-2.626;2022-07-29T03:26:59;8.30;;;6.22;;
70153;SDS011;57519;51.494;-2.626;2022-07-29T03:29:26;9.27;;;6.53;;
70153;SDS011;57519;51.494;-2.626;2022-07-29T03:31:52;8.15;;;5.97;;
70153;SDS011;57519;51.494;-2.626;2022-07-29T03:34:18;10.70;;;6.20;;
70153;SDS011;57519;51.494;-2.626;2022-07-29T03:36:43;11.95;;;6.43;;
70153;SDS011;57519;51.494;-2.626;2022-07-29T03:39:09;11.53;;;6.33;;
70153;SDS011;57519;51.494;-2.626;2022-07-29T03:41:37;9.95;;;6.28;;
70153;SDS011;57519;51.494;-2.626;2022-07-29T03:44:04;11.05;;;7.03;;
70153;SDS011;57519;51.494;-2.626;2022-07-29T03:46:32;11.13;;;6.83;;
70153;SDS011;57519;51.494;-2.626;2022-07-29T03:49:00;10.00;;;5.88;;
70153;SDS011;57519;51.494;-2.626;2022-07-29T03:51:27;9.23;;;6.20;;
70153;SDS011;57519;51.494;-2.626;2022-07-29T03:53:53;12.10;;;6.87;;
70153;SDS011;57519;51.494;-2.626;2022-07-29T03:56:20;10.05;;;6.47;;
70153;SDS011;57519;51.494;-2.626;2022-07-29T03:58:46;12.30;;;6.23;;
70153;SDS011;57519;51.494;-2.626;2022-07-29T04:01:14;10.48;;;6.55;;
70153;SDS011;57519;51.494;-2.626;2022-07-29T04:03:42;8.45;;;6.70;;
70153;SDS011;57519;51.494;-2.626;2022-07-29T04:06:10;10.77;;;6.25;;
70153;SDS011;57519;51.494;-2.626;2022-07-29T04:08:36;8.38;;;6.75;;
70153;SDS011;57519;51.494;-2.626;2022-07-29T04:11:02;10.90;;;6.23;;
70153;SDS011;57519;51.494;-2.626;2022-07-29T04:13:28;11.18;;;6.28;;
70153;SDS011;57519;51.494;-2.626;2022-07-29T04:15:53;10.33;;;6.60;;
70153;SDS011;57519;51.494;-2.626;2022-07-29T04:18:19;11.63;;;7.55;;
70153;SDS011;57519;51.494;-2.626;2022-07-29T04:20:44;13.70;;;7.70;;
70153;SDS011;57519;51.494;-2.626;2022-07-29T04:23:10;9.43;;;6.77;;
70153;SDS011;57519;51.494;-2.626;2022-07-29T04:25:39;14.83;;;7.40;;
70153;SDS011;57519;51.494;-2.626;2022-07-29T04:28:05;12.43;;;7.55;;
70153;SDS011;57519;51.494;-2.626;2022-07-29T04:30:31;15.35;;;7.13;;
70153;SDS011;57519;51.494;-2.626;2022-07-29T04:32:58;15.18;;;7.97;;
70153;SDS011;57519;51.494;-2.626;2022-07-29T04:35:25;9.07;;;6.00;;
70153;SDS011;57519;51.494;-2.626;2022-07-29T04:37:51;11.48;;;7.28;;
70153;SDS011;57519;51.494;-2.626;2022-07-29T04:40:17;12.10;;;7.60;;
70153;SDS011;57519;51.494;-2.626;2022-07-29T04:42:42;12.50;;;6.90;;
70153;SDS011;57519;51.494;-2.626;2022-07-29T04:45:08;13.03;;;7.43;;
70153;SDS011;57519;51.494;-2.626;2022-07-29T04:47:33;10.23;;;7.03;;
70153;SDS011;57519;51.494;-2.626;2022-07-29T04:49:59;6.97;;;6.20;;
70153;SDS011;57519;51.494;-2.626;2022-07-29T04:52:25;11.57;;;6.53;;
70153;SDS011;57519;51.494;-2.626;2022-07-29T04:54:50;9.83;;;6.87;;
70153;SDS011;57519;51.494;-2.626;2022-07-29T04:57:16;13.23;;;7.13;;
70153;SDS011;57519;51.494;-2.626;2022-07-29T04:59:41;10.07;;;6.20;;
70153;SDS011;57519;51.494;-2.626;2022-07-29T05:02:07;9.57;;;6.90;;
70153;SDS011;57519;51.494;-2.626;2022-07-29T05:04:32;8.27;;;6.53;;
70153;SDS011;57519;51.494;-2.626;2022-07-29T05:06:57;11.43;;;7.10;;
70153;SDS011;57519;51.494;-2.626;2022-07-29T05:09:23;12.25;;;6.70;;
70153;SDS011;57519;51.494;-2.626;2022-07-29T05:11:48;10.13;;;6.17;;
70153;SDS011;57519;51.494;-2.626;2022-07-29T05:14:14;14.77;;;6.73;;
70153;SDS011;57519;51.494;-2.626;2022-07-29T05:16:39;11.17;;;6.70;;
70153;SDS011;57519;51.494;-2.626;2022-07-29T05:19:05;15.70;;;7.13;;
70153;SDS011;57519;51.494;-2.626;2022-07-29T05:21:31;13.60;;;6.93;;
70153;SDS011;57519;51.494;-2.626;2022-07-29T05:23:56;12.77;;;6.77;;
70153;SDS011;57519;51.494;-2.626;2022-07-29T05:26:22;10.20;;;5.93;;
70153;SDS011;57519;51.494;-2.626;2022-07-29T05:28:47;12.10;;;6.87;;
70153;SDS011;57519;51.494;-2.626;2022-07-29T05:31:13;9.30;;;6.50;;
70153;SDS011;57519;51.494;-2.626;2022-07-29T05:33:39;12.70;;;6.73;;
70153;SDS011;57519;51.494;-2.626;2022-07-29T05:36:05;9.52;;;6.97;;
70153;SDS011;57519;51.494;-2.626;2022-07-29T05:38:32;10.32;;;7.30;;
70153;SDS011;57519;51.494;-2.626;2022-07-29T05:40:58;10.70;;;6.18;;
70153;SDS011;57519;51.494;-2.626;2022-07-29T05:43:24;11.73;;;7.32;;
70153;SDS011;57519;51.494;-2.626;2022-07-29T05:45:50;10.30;;;6.47;;
70153;SDS011;57519;51.494;-2.626;2022-07-29T05:48:15;7.50;;;6.05;;
70153;SDS011;57519;51.494;-2.626;2022-07-29T05:50:41;12.40;;;7.07;;
70153;SDS011;57519;51.494;-2.626;2022-07-29T05:53:06;11.30;;;6.67;;
70153;SDS011;57519;51.494;-2.626;2022-07-29T05:55:32;12.27;;;7.20;;
70153;SDS011;57519;51.494;-2.626;2022-07-29T05:57:57;8.27;;;5.80;;
70153;SDS011;57519;51.494;-2.626;2022-07-29T06:00:22;10.55;;;7.10;;
70153;SDS011;57519;51.494;-2.626;2022-07-29T06:02:48;10.03;;;7.17;;
70153;SDS011;57519;51.494;-2.626;2022-07-29T06:05:13;9.10;;;6.73;;
70153;SDS011;57519;51.494;-2.626;2022-07-29T06:07:40;13.32;;;6.85;;
70153;SDS011;57519;51.494;-2.626;2022-07-29T06:10:05;11.27;;;6.40;;
70153;SDS011;57519;51.494;-2.626;2022-07-29T06:12:31;11.75;;;6.75;;
70153;SDS011;57519;51.494;-2.626;2022-07-29T06:14:56;11.80;;;6.53;;
70153;SDS011;57519;51.494;-2.626;2022-07-29T06:17:22;13.70;;;7.15;;
70153;SDS011;57519;51.494;-2.626;2022-07-29T06:19:48;13.67;;;7.40;;
70153;SDS011;57519;51.494;-2.626;2022-07-29T06:22:15;10.93;;;7.27;;
70153;SDS011;57519;51.494;-2.626;2022-07-29T06:24:41;9.85;;;5.90;;
70153;SDS011;57519;51.494;-2.626;2022-07-29T06:27:09;10.18;;;5.97;;
70153;SDS011;57519;51.494;-2.626;2022-07-29T06:29:37;8.02;;;5.95;;
70153;SDS011;57519;51.494;-2.626;2022-07-29T06:32:03;9.27;;;5.33;;
70153;SDS011;57519;51.494;-2.626;2022-07-29T06:34:29;9.65;;;6.15;;
70153;SDS011;57519;51.494;-2.626;2022-07-29T06:36:54;13.33;;;5.90;;
70153;SDS011;57519;51.494;-2.626;2022-07-29T06:39:19;8.77;;;5.18;;
70153;SDS011;57519;51.494;-2.626;2022-07-29T06:41:48;9.17;;;5.10;;
70153;SDS011;57519;51.494;-2.626;2022-07-29T06:44:15;9.98;;;5.25;;
70153;SDS011;57519;51.494;-2.626;2022-07-29T06:46:42;15.93;;;5.63;;
70153;SDS011;57519;51.494;-2.626;2022-07-29T06:49:08;13.15;;;4.95;;
70153;SDS011;57519;51.494;-2.626;2022-07-29T06:51:34;8.30;;;4.95;;
70153;SDS011;57519;51.494;-2.626;2022-07-29T06:54:01;7.88;;;4.07;;
70153;SDS011;57519;51.494;-2.626;2022-07-29T06:56:27;10.73;;;4.78;;
70153;SDS011;57519;51.494;-2.626;2022-07-29T06:58:53;8.90;;;5.03;;
70153;SDS011;57519;51.494;-2.626;2022-07-29T07:01:18;13.07;;;5.17;;
70153;SDS011;57519;51.494;-2.626;2022-07-29T07:03:44;8.18;;;4.55;;
70153;SDS011;57519;51.494;-2.626;2022-07-29T07:06:10;13.43;;;5.90;;
70153;SDS011;57519;51.494;-2.626;2022-07-29T07:08:35;9.83;;;4.70;;
70153;SDS011;57519;51.494;-2.626;2022-07-29T07:11:01;7.70;;;5.07;;
70153;SDS011;57519;51.494;-2.626;2022-07-29T07:13:26;7.47;;;4.00;;
70153;SDS011;57519;51.494;-2.626;2022-07-29T07:15:53;8.63;;;4.30;;
70153;SDS011;57519;51.494;-2.626;2022-07-29T07:18:18;9.73;;;4.67;;
70153;SDS011;57519;51.494;-2.626;2022-07-29T07:20:44;9.30;;;4.57;;
70153;SDS011;57519;51.494;-2.626;2022-07-29T07:23:10;9.40;;;4.45;;
70153;SDS011;57519;51.494;-2.626;2022-07-29T07:25:36;8.48;;;4.28;;
70153;SDS011;57519;51.494;-2.626;2022-07-29T07:28:02;6.93;;;4.03;;
70153;SDS011;57519;51.494;-2.626;2022-07-29T07:30:28;10.93;;;4.97;;
70153;SDS011;57519;51.494;-2.626;2022-07-29T07:32:54;10.68;;;4.40;;
70153;SDS011;57519;51.494;-2.626;2022-07-29T07:35:20;9.10;;;4.33;;
70153;SDS011;57519;51.494;-2.626;2022-07-29T07:37:46;6.68;;;4.03;;
70153;SDS011;57519;51.494;-2.626;2022-07-29T07:40:11;13.32;;;4.38;;
70153;SDS011;57519;51.494;-2.626;2022-07-29T07:42:38;7.27;;;3.33;;
70153;SDS011;57519;51.494;-2.626;2022-07-29T07:45:04;10.65;;;4.05;;
70153;SDS011;57519;51.494;-2.626;2022-07-29T07:47:30;11.77;;;4.45;;
70153;SDS011;57519;51.494;-2.626;2022-07-29T07:49:56;6.90;;;3.50;;
70153;SDS011;57519;51.494;-2.626;2022-07-29T07:52:22;8.45;;;4.07;;
70153;SDS011;57519;51.494;-2.626;2022-07-29T07:54:47;9.20;;;4.13;;
70153;SDS011;57519;51.494;-2.626;2022-07-29T07:57:13;10.43;;;4.33;;
70153;SDS011;57519;51.494;-2.626;2022-07-29T07:59:39;5.77;;;3.87;;
70153;SDS011;57519;51.494;-2.626;2022-07-29T08:02:05;5.68;;;3.42;;
70153;SDS011;57519;51.494;-2.626;2022-07-29T08:04:31;9.83;;;3.90;;
70153;SDS011;57519;51.494;-2.626;2022-07-29T08:06:56;7.50;;;4.07;;
70153;SDS011;57519;51.494;-2.626;2022-07-29T08:09:23;8.63;;;4.03;;
70153;SDS011;57519;51.494;-2.626;2022-07-29T08:11:50;4.97;;;3.03;;
70153;SDS011;57519;51.494;-2.626;2022-07-29T08:14:15;8.93;;;3.40;;
70153;SDS011;57519;51.494;-2.626;2022-07-29T08:16:41;10.60;;;4.50;;
70153;SDS011;57519;51.494;-2.626;2022-07-29T08:19:07;5.82;;;3.95;;
70153;SDS011;57519;51.494;-2.626;2022-07-29T08:21:33;5.93;;;3.27;;
70153;SDS011;57519;51.494;-2.626;2022-07-29T08:23:58;7.13;;;3.47;;
70153;SDS011;57519;51.494;-2.626;2022-07-29T08:26:42;7.77;;;3.70;;
70153;SDS011;57519;51.494;-2.626;2022-07-29T08:29:09;6.55;;;3.63;;
70153;SDS011;57519;51.494;-2.626;2022-07-29T08:31:35;9.57;;;4.00;;
70153;SDS011;57519;51.494;-2.626;2022-07-29T08:34:02;7.95;;;4.22;;
70153;SDS011;57519;51.494;-2.626;2022-07-29T08:36:28;7.63;;;3.95;;
70153;SDS011;57519;51.494;-2.626;2022-07-29T08:38:54;9.97;;;3.97;;
70153;SDS011;57519;51.494;-2.626;2022-07-29T08:41:19;6.37;;;3.73;;
70153;SDS011;57519;51.494;-2.626;2022-07-29T08:43:45;6.72;;;3.63;;
70153;SDS011;57519;51.494;-2.626;2022-07-29T08:46:12;7.70;;;3.35;;
70153;SDS011;57519;51.494;-2.626;2022-07-29T08:48:37;7.03;;;3.70;;
70153;SDS011;57519;51.494;-2.626;2022-07-29T08:51:04;9.88;;;4.40;;
70153;SDS011;57519;51.494;-2.626;2022-07-29T08:53:32;8.65;;;3.75;;
70153;SDS011;57519;51.494;-2.626;2022-07-29T08:55:58;14.00;;;4.70;;
70153;SDS011;57519;51.494;-2.626;2022-07-29T08:58:24;9.07;;;3.75;;
70153;SDS011;57519;51.494;-2.626;2022-07-29T09:00:52;10.35;;;3.80;;
70153;SDS011;57519;51.494;-2.626;2022-07-29T09:03:20;6.88;;;3.75;;
70153;SDS011;57519;51.494;-2.626;2022-07-29T09:05:48;6.68;;;3.35;;
70153;SDS011;57519;51.494;-2.626;2022-07-29T09:08:15;6.47;;;3.50;;
70153;SDS011;57519;51.494;-2.626;2022-07-29T09:10:42;10.27;;;3.85;;
70153;SDS011;57519;51.494;-2.626;2022-07-29T09:13:08;7.97;;;4.22;;
70153;SDS011;57519;51.494;-2.626;2022-07-29T09:15:33;7.57;;;4.03;;
70153;SDS011;57519;51.494;-2.626;2022-07-29T09:17:59;6.00;;;3.57;;
70153;SDS011;57519;51.494;-2.626;2022-07-29T09:20:25;7.53;;;3.50;;
70153;SDS011;57519;51.494;-2.626;2022-07-29T09:23:11;8.60;;;3.78;;
70153;SDS011;57519;51.494;-2.626;2022-07-29T09:25:39;8.98;;;4.40;;
70153;SDS011;57519;51.494;-2.626;2022-07-29T09:28:15;9.60;;;4.43;;
70153;SDS011;57519;51.494;-2.626;2022-07-29T09:30:57;8.23;;;3.90;;
70153;SDS011;57519;51.494;-2.626;2022-07-29T09:33:23;9.53;;;4.13;;
70153;SDS011;57519;51.494;-2.626;2022-07-29T09:35:59;9.05;;;4.00;;
70153;SDS011;57519;51.494;-2.626;2022-07-29T09:38:34;6.53;;;3.67;;
70153;SDS011;57519;51.494;-2.626;2022-07-29T09:41:03;9.32;;;4.35;;
70153;SDS011;57519;51.494;-2.626;2022-07-29T09:43:29;10.30;;;4.43;;
70153;SDS011;57519;51.494;-2.626;2022-07-29T09:45:55;10.93;;;4.47;;
70153;SDS011;57519;51.494;-2.626;2022-07-29T09:48:22;10.17;;;3.93;;
70153;SDS011;57519;51.494;-2.626;2022-07-29T09:50:49;9.70;;;3.90;;
70153;SDS011;57519;51.494;-2.626;2022-07-29T09:55:55;7.40;;;3.83;;
70153;SDS011;57519;51.494;-2.626;2022-07-29T09:58:21;7.80;;;3.97;;
70153;SDS011;57519;51.494;-2.626;2022-07-29T10:00:48;8.48;;;3.58;;
70153;SDS011;57519;51.494;-2.626;2022-07-29T10:03:14;8.65;;;4.15;;
70153;SDS011;57519;51.494;-2.626;2022-07-29T10:05:41;11.10;;;4.27;;
70153;SDS011;57519;51.494;-2.626;2022-07-29T10:08:07;9.93;;;4.38;;
70153;SDS011;57519;51.494;-2.626;2022-07-29T10:10:35;6.72;;;3.92;;
70153;SDS011;57519;51.494;-2.626;2022-07-29T10:13:04;17.35;;;5.30;;
70153;SDS011;57519;51.494;-2.626;2022-07-29T10:15:38;9.88;;;4.40;;
70153;SDS011;57519;51.494;-2.626;2022-07-29T10:18:11;8.23;;;3.70;;
70153;SDS011;57519;51.494;-2.626;2022-07-29T10:20:38;8.50;;;3.90;;
70153;SDS011;57519;51.494;-2.626;2022-07-29T10:23:04;13.45;;;3.83;;
70153;SDS011;57519;51.494;-2.626;2022-07-29T10:25:30;7.23;;;3.67;;
70153;SDS011;57519;51.494;-2.626;2022-07-29T10:27:55;5.13;;;3.07;;
70153;SDS011;57519;51.494;-2.626;2022-07-29T10:30:22;6.00;;;3.35;;
70153;SDS011;57519;51.494;-2.626;2022-07-29T10:44:38;9.00;;;3.40;;
70153;SDS011;57519;51.494;-2.626;2022-07-29T10:46:43;9.65;;;3.38;;
70153;SDS011;57519;51.494;-2.626;2022-07-29T10:57:12;6.17;;;2.63;;
70153;SDS011;57519;51.494;-2.626;2022-07-29T10:59:51;8.35;;;3.10;;
70153;SDS011;57519;51.494;-2.626;2022-07-29T11:05:13;6.53;;;3.25;;
70153;SDS011;57519;51.494;-2.626;2022-07-29T11:08:16;6.72;;;3.40;;
70153;SDS011;57519;51.494;-2.626;2022-07-29T11:10:37;6.03;;;3.17;;
70153;SDS011;57519;51.494;-2.626;2022-07-29T11:13:03;9.02;;;3.30;;
70153;SDS011;57519;51.494;-2.626;2022-07-29T11:15:29;6.15;;;3.22;;
70153;SDS011;57519;51.494;-2.626;2022-07-29T11:18:22;5.93;;;3.40;;
70153;SDS011;57519;51.494;-2.626;2022-07-29T11:20:49;5.65;;;3.28;;
70153;SDS011;57519;51.494;-2.626;2022-07-29T11:26:12;7.80;;;3.20;;
70153;SDS011;57519;51.494;-2.626;2022-07-29T11:31:34;8.55;;;3.38;;
70153;SDS011;57519;51.494;-2.626;2022-07-29T11:39:33;5.60;;;3.20;;
70153;SDS011;57519;51.494;-2.626;2022-07-29T11:47:36;9.30;;;4.13;;
70153;SDS011;57519;51.494;-2.626;2022-07-29T11:50:04;6.40;;;3.10;;
70153;SDS011;57519;51.494;-2.626;2022-07-29T11:52:35;7.88;;;2.78;;
70153;SDS011;57519;51.494;-2.626;2022-07-29T11:55:15;7.47;;;2.80;;
70153;SDS011;57519;51.494;-2.626;2022-07-29T11:57:45;7.05;;;3.13;;
70153;SDS011;57519;51.494;-2.626;2022-07-29T12:00:13;8.50;;;3.10;;
70153;SDS011;57519;51.494;-2.626;2022-07-29T12:02:47;7.22;;;3.10;;
70153;SDS011;57519;51.494;-2.626;2022-07-29T12:05:12;6.27;;;2.80;;
70153;SDS011;57519;51.494;-2.626;2022-07-29T12:07:38;5.33;;;2.53;;
70153;SDS011;57519;51.494;-2.626;2022-07-29T12:10:05;4.07;;;2.75;;
70153;SDS011;57519;51.494;-2.626;2022-07-29T12:12:31;6.38;;;3.10;;
70153;SDS011;57519;51.494;-2.626;2022-07-29T12:14:57;7.63;;;3.33;;
70153;SDS011;57519;51.494;-2.626;2022-07-29T12:17:26;4.23;;;2.30;;
70153;SDS011;57519;51.494;-2.626;2022-07-29T12:19:53;5.93;;;2.47;;
70153;SDS011;57519;51.494;-2.626;2022-07-29T12:22:52;8.73;;;3.58;;
70153;SDS011;57519;51.494;-2.626;2022-07-29T12:25:13;4.73;;;2.13;;
70153;SDS011;57519;51.494;-2.626;2022-07-29T12:27:40;6.07;;;3.00;;
70153;SDS011;57519;51.494;-2.626;2022-07-29T12:30:08;6.97;;;2.95;;
70153;SDS011;57519;51.494;-2.626;2022-07-29T12:32:44;6.32;;;3.05;;
70153;SDS011;57519;51.494;-2.626;2022-07-29T12:35:12;7.15;;;3.33;;
70153;SDS011;57519;51.494;-2.626;2022-07-29T12:37:40;5.27;;;2.50;;
70153;SDS011;57519;51.494;-2.626;2022-07-29T12:40:08;6.55;;;2.83;;
70153;SDS011;57519;51.494;-2.626;2022-07-29T12:42:35;9.73;;;3.92;;
70153;SDS011;57519;51.494;-2.626;2022-07-29T12:45:02;6.22;;;2.88;;
70153;SDS011;57519;51.494;-2.626;2022-07-29T12:47:29;5.90;;;3.13;;
70153;SDS011;57519;51.494;-2.626;2022-07-29T12:50:11;8.50;;;2.70;;
70153;SDS011;57519;51.494;-2.626;2022-07-29T12:52:40;6.28;;;3.22;;
70153;SDS011;57519;51.494;-2.626;2022-07-29T12:55:05;8.50;;;2.83;;
70153;SDS011;57519;51.494;-2.626;2022-07-29T12:57:31;6.70;;;3.37;;
70153;SDS011;57519;51.494;-2.626;2022-07-29T13:00:07;6.97;;;2.83;;
70153;SDS011;57519;51.494;-2.626;2022-07-29T13:02:36;10.57;;;3.47;;
70153;SDS011;57519;51.494;-2.626;2022-07-29T13:05:03;6.55;;;2.78;;
70153;SDS011;57519;51.494;-2.626;2022-07-29T13:07:30;5.85;;;3.00;;
70153;SDS011;57519;51.494;-2.626;2022-07-29T13:10:09;7.47;;;3.77;;
70153;SDS011;57519;51.494;-2.626;2022-07-29T13:12:36;6.32;;;2.60;;
70153;SDS011;57519;51.494;-2.626;2022-07-29T13:15:12;9.13;;;3.50;;
70153;SDS011;57519;51.494;-2.626;2022-07-29T13:17:43;6.80;;;2.80;;
70153;SDS011;57519;51.494;-2.626;2022-07-29T13:20:10;9.73;;;2.33;;
70153;SDS011;57519;51.494;-2.626;2022-07-29T13:22:40;9.23;;;3.13;;
70153;SDS011;57519;51.494;-2.626;2022-07-29T13:25:07;6.00;;;3.78;;
70153;SDS011;57519;51.494;-2.626;2022-07-29T13:27:34;6.88;;;2.67;;
70153;SDS011;57519;51.494;-2.626;2022-07-29T13:30:03;8.82;;;3.53;;
70153;SDS011;57519;51.494;-2.626;2022-07-29T13:32:31;7.67;;;3.00;;
70153;SDS011;57519;51.494;-2.626;2022-07-29T13:34:58;12.98;;;4.70;;
70153;SDS011;57519;51.494;-2.626;2022-07-29T13:37:25;8.73;;;3.45;;
70153;SDS011;57519;51.494;-2.626;2022-07-29T13:39:51;8.73;;;3.38;;
70153;SDS011;57519;51.494;-2.626;2022-07-29T13:42:17;7.68;;;4.32;;
70153;SDS011;57519;51.494;-2.626;2022-07-29T13:44:43;6.20;;;3.23;;
70153;SDS011;57519;51.494;-2.626;2022-07-29T13:47:09;9.63;;;4.57;;
70153;SDS011;57519;51.494;-2.626;2022-07-29T13:49:34;8.90;;;4.22;;
70153;SDS011;57519;51.494;-2.626;2022-07-29T13:52:00;6.07;;;2.83;;
70153;SDS011;57519;51.494;-2.626;2022-07-29T13:54:26;6.68;;;2.90;;
70153;SDS011;57519;51.494;-2.626;2022-07-29T13:56:52;7.83;;;2.83;;
70153;SDS011;57519;51.494;-2.626;2022-07-29T13:59:17;6.68;;;2.70;;
70153;SDS011;57519;51.494;-2.626;2022-07-29T14:01:43;8.77;;;3.17;;
70153;SDS011;57519;51.494;-2.626;2022-07-29T14:04:09;11.37;;;3.83;;
70153;SDS011;57519;51.494;-2.626;2022-07-29T14:06:35;8.32;;;3.45;;
70153;SDS011;57519;51.494;-2.626;2022-07-29T14:09:01;9.60;;;4.28;;
70153;SDS011;57519;51.494;-2.626;2022-07-29T14:11:26;7.93;;;3.87;;
70153;SDS011;57519;51.494;-2.626;2022-07-29T14:13:52;9.73;;;3.30;;
70153;SDS011;57519;51.494;-2.626;2022-07-29T14:16:17;13.67;;;3.80;;
70153;SDS011;57519;51.494;-2.626;2022-07-29T14:18:43;8.80;;;3.90;;
70153;SDS011;57519;51.494;-2.626;2022-07-29T14:21:08;6.05;;;3.17;;
70153;SDS011;57519;51.494;-2.626;2022-07-29T14:23:34;7.20;;;3.80;;
70153;SDS011;57519;51.494;-2.626;2022-07-29T14:26:00;6.07;;;3.08;;
70153;SDS011;57519;51.494;-2.626;2022-07-29T14:28:25;6.13;;;3.27;;
70153;SDS011;57519;51.494;-2.626;2022-07-29T14:30:51;6.87;;;3.57;;
70153;SDS011;57519;51.494;-2.626;2022-07-29T14:33:17;7.80;;;2.88;;
70153;SDS011;57519;51.494;-2.626;2022-07-29T14:35:42;6.90;;;3.20;;
70153;SDS011;57519;51.494;-2.626;2022-07-29T14:38:08;7.15;;;3.67;;
70153;SDS011;57519;51.494;-2.626;2022-07-29T14:40:34;8.07;;;3.47;;
70153;SDS011;57519;51.494;-2.626;2022-07-29T14:42:59;8.93;;;3.72;;
70153;SDS011;57519;51.494;-2.626;2022-07-29T14:45:25;7.70;;;3.10;;
70153;SDS011;57519;51.494;-2.626;2022-07-29T14:47:50;6.27;;;3.30;;
70153;SDS011;57519;51.494;-2.626;2022-07-29T14:50:16;8.93;;;3.23;;
70153;SDS011;57519;51.494;-2.626;2022-07-29T14:52:42;5.78;;;3.45;;
70153;SDS011;57519;51.494;-2.626;2022-07-29T14:55:08;8.75;;;3.28;;
70153;SDS011;57519;51.494;-2.626;2022-07-29T14:57:33;7.83;;;3.97;;
70153;SDS011;57519;51.494;-2.626;2022-07-29T14:59:59;8.75;;;3.58;;
70153;SDS011;57519;51.494;-2.626;2022-07-29T15:02:24;10.13;;;3.50;;
70153;SDS011;57519;51.494;-2.626;2022-07-29T15:04:50;6.83;;;3.60;;
70153;SDS011;57519;51.494;-2.626;2022-07-29T15:07:15;9.60;;;3.70;;
70153;SDS011;57519;51.494;-2.626;2022-07-29T15:09:41;7.00;;;3.10;;
70153;SDS011;57519;51.494;-2.626;2022-07-29T15:12:07;9.65;;;3.97;;
70153;SDS011;57519;51.494;-2.626;2022-07-29T15:14:33;6.67;;;2.83;;
70153;SDS011;57519;51.494;-2.626;2022-07-29T15:16:58;8.55;;;2.90;;
70153;SDS011;57519;51.494;-2.626;2022-07-29T15:19:24;7.23;;;3.23;;
70153;SDS011;57519;51.494;-2.626;2022-07-29T15:21:49;6.20;;;3.33;;
70153;SDS011;57519;51.494;-2.626;2022-07-29T15:24:18;8.30;;;3.30;;
70153;SDS011;57519;51.494;-2.626;2022-07-29T15:26:44;7.13;;;3.15;;
70153;SDS011;57519;51.494;-2.626;2022-07-29T15:29:10;9.50;;;3.90;;
70153;SDS011;57519;51.494;-2.626;2022-07-29T15:31:35;8.52;;;3.42;;
70153;SDS011;57519;51.494;-2.626;2022-07-29T15:34:01;6.97;;;3.53;;
70153;SDS011;57519;51.494;-2.626;2022-07-29T15:36:26;6.60;;;3.60;;
70153;SDS011;57519;51.494;-2.626;2022-07-29T15:38:52;5.50;;;3.20;;
70153;SDS011;57519;51.494;-2.626;2022-07-29T15:41:19;5.07;;;2.38;;
70153;SDS011;57519;51.494;-2.626;2022-07-29T15:43:44;9.65;;;3.42;;